createdAt,value
2022-07-29T00:00:06.064Z,2.17
2022-07-29T00:03:09.725Z,1.90
2022-07-29T00:06:15.138Z,2.13
2022-07-29T00:09:18.796Z,1.70
2022-07-29T00:12:25.293Z,1.87
2022-07-29T00:15:30.160Z,1.77
2022-07-29T00:18:34.252Z,1.70
2022-07-29T00:21:39.242Z,1.60
2022-07-29T00:24:43.070Z,1.70
2022-07-29T00:27:47.247Z,1.87
2022-07-29T00:30:50.908Z,1.70
2022-07-29T00:33:54.828Z,2.10
2022-07-29T00:36:59.272Z,1.83
2022-07-29T00:40:03.203Z,1.90
2022-07-29T00:43:07.019Z,2.13
2022-07-29T00:46:10.774Z,2.10
2022-07-29T00:49:15.213Z,1.90
2022-07-29T00:52:20.483Z,1.80
2022-07-29T00:55:25.227Z,1.67
2022-07-29T00:58:29.767Z,1.60
2022-07-29T01:01:33.493Z,1.90
2022-07-29T01:04:37.458Z,1.70
2022-07-29T01:07:43.681Z,1.77
2022-07-29T01:10:49.351Z,1.53
2022-07-29T01:13:54.826Z,1.70
2022-07-29T01:17:16.192Z,1.60
2022-07-29T01:20:33.503Z,1.77
2022-07-29T01:24:09.674Z,1.40
2022-07-29T01:27:40.675Z,1.57
2022-07-29T01:30:52.843Z,1.47
2022-07-29T01:34:05.022Z,1.60
2022-07-29T01:37:17.952Z,1.77
2022-07-29T01:40:26.466Z,1.90
2022-07-29T01:43:40.239Z,1.70
2022-07-29T01:46:54.692Z,1.57
2022-07-29T01:50:02.385Z,1.70
2022-07-29T01:53:10.941Z,2.07
2022-07-29T01:56:18.395Z,1.30
2022-07-29T01:59:24.362Z,1.60
2022-07-29T02:02:34.270Z,1.93
2022-07-29T02:05:41.169Z,1.93
2022-07-29T02:08:47.872Z,1.50
2022-07-29T02:11:56.291Z,1.40
2022-07-29T02:15:05.787Z,1.77
2022-07-29T02:18:17.616Z,1.67
2022-07-29T02:21:27.454Z,2.20
2022-07-29T02:24:32.993Z,1.70
2022-07-29T02:27:39.948Z,2.10
2022-07-29T02:30:46.547Z,1.60
2022-07-29T02:33:53.476Z,1.50
2022-07-29T02:36:58.809Z,1.70
2022-07-29T02:40:03.664Z,1.80
2022-07-29T02:43:10.003Z,1.43
2022-07-29T02:46:28.870Z,2.23
2022-07-29T02:49:40.794Z,1.77
2022-07-29T02:52:48.827Z,1.50
2022-07-29T02:55:59.367Z,1.40
2022-07-29T02:59:08.199Z,1.73
2022-07-29T03:02:15.566Z,1.87
2022-07-29T03:05:23.612Z,1.63
2022-07-29T03:08:29.520Z,1.67
2022-07-29T03:11:41.442Z,1.70
2022-07-29T03:14:55.279Z,1.60
2022-07-29T03:18:00.903Z,1.60
2022-07-29T03:21:06.540Z,1.67
2022-07-29T03:24:10.929Z,1.63
2022-07-29T03:27:14.991Z,1.93
2022-07-29T03:30:21.811Z,1.40
2022-07-29T03:33:26.133Z,1.70
2022-07-29T03:36:31.081Z,1.73
2022-07-29T03:39:42.895Z,1.80
2022-07-29T03:42:48.953Z,2.03
2022-07-29T03:45:57.200Z,2.07
2022-07-29T03:49:05.291Z,1.70
2022-07-29T03:52:11.155Z,2.07
2022-07-29T03:55:15.764Z,1.60
2022-07-29T03:58:22.052Z,1.93
2022-07-29T04:01:26.904Z,1.97
2022-07-29T04:04:30.758Z,1.57
2022-07-29T04:07:35.798Z,1.93
2022-07-29T04:10:40.877Z,1.83
2022-07-29T04:13:44.520Z,1.60
2022-07-29T04:16:48.302Z,2.10
2022-07-29T04:19:51.881Z,1.57
2022-07-29T04:22:56.987Z,1.63
2022-07-29T04:26:01.416Z,2.03
2022-07-29T04:29:05.101Z,2.00
2022-07-29T04:32:09.179Z,1.60
2022-07-29T04:35:12.840Z,1.80
2022-07-29T04:38:17.913Z,1.70
2022-07-29T04:41:21.565Z,2.10
2022-07-29T04:44:28.423Z,2.27
2022-07-29T04:47:32.540Z,2.33
2022-07-29T04:50:36.243Z,2.20
2022-07-29T04:53:41.324Z,1.93
2022-07-29T04:56:44.969Z,1.60
2022-07-29T04:59:49.677Z,2.33
2022-07-29T05:02:53.363Z,2.23
2022-07-29T05:05:58.124Z,2.40
2022-07-29T05:09:03.125Z,2.83
2022-07-29T05:12:07.956Z,2.27
2022-07-29T05:15:12.514Z,2.50
2022-07-29T05:18:16.505Z,2.40
2022-07-29T05:21:20.090Z,2.40
2022-07-29T05:24:25.471Z,2.20
2022-07-29T05:27:29.052Z,2.17
2022-07-29T05:30:32.761Z,1.83
2022-07-29T05:33:37.173Z,1.83
2022-07-29T05:36:40.895Z,2.57
2022-07-29T05:39:48.918Z,2.00
2022-07-29T05:42:54.496Z,2.33
2022-07-29T05:45:58.934Z,2.77
2022-07-29T05:49:03.946Z,2.07
2022-07-29T05:52:07.682Z,2.60
2022-07-29T05:55:13.211Z,2.33
2022-07-29T05:58:16.961Z,2.50
2022-07-29T06:01:21.248Z,1.93
2022-07-29T06:04:25.022Z,2.80
2022-07-29T06:07:28.684Z,2.50
2022-07-29T06:10:33.737Z,2.40
2022-07-29T06:13:37.469Z,2.77
2022-07-29T06:16:41.102Z,2.63
2022-07-29T06:19:45.042Z,2.50
2022-07-29T06:22:48.600Z,2.37
2022-07-29T06:25:53.944Z,2.77
2022-07-29T06:28:57.546Z,2.60
2022-07-29T06:32:01.215Z,2.60
2022-07-29T06:35:36.177Z,2.40
2022-07-29T06:38:30.668Z,2.50
2022-07-29T06:41:38.890Z,2.60
2022-07-29T06:44:42.920Z,1.90
2022-07-29T06:47:46.645Z,2.10
2022-07-29T06:50:50.439Z,2.53
2022-07-29T06:54:00.463Z,2.40
2022-07-29T06:57:08.212Z,2.53
2022-07-29T07:00:13.731Z,2.73
2022-07-29T07:03:17.999Z,2.37
2022-07-29T07:06:21.668Z,2.20
2022-07-29T07:09:25.360Z,2.67
2022-07-29T07:12:45.404Z,2.70
2022-07-29T07:15:49.884Z,2.30
2022-07-29T07:18:53.577Z,2.47
2022-07-29T07:21:57.339Z,2.47
2022-07-29T07:25:01.109Z,2.60
2022-07-29T07:28:06.628Z,2.43
2022-07-29T07:31:10.551Z,2.00
2022-07-29T07:34:15.681Z,2.20
2022-07-29T07:37:20.433Z,2.27
2022-07-29T07:40:24.665Z,2.27
2022-07-29T07:43:29.719Z,2.23
2022-07-29T07:46:33.371Z,2.30
2022-07-29T07:49:37.055Z,2.20
2022-07-29T07:52:51.078Z,2.20
2022-07-29T07:56:11.772Z,2.33
2022-07-29T07:59:18.211Z,2.23
2022-07-29T08:02:22.046Z,1.90
2022-07-29T08:05:26.140Z,2.13
2022-07-29T08:08:29.833Z,2.13
2022-07-29T08:11:34.111Z,2.30
2022-07-29T08:14:42.744Z,1.70
2022-07-29T08:17:46.996Z,2.27
2022-07-29T08:20:50.689Z,2.17
2022-07-29T08:24:14.786Z,2.80
2022-07-29T08:27:41.756Z,1.97
2022-07-29T08:30:43.980Z,1.90
2022-07-29T08:33:47.744Z,2.10
2022-07-29T08:36:51.490Z,1.90
2022-07-29T08:39:55.072Z,2.17
2022-07-29T08:42:59.064Z,1.73
2022-07-29T08:46:04.311Z,1.90
2022-07-29T08:49:08.085Z,2.30
2022-07-29T08:52:14.156Z,1.63
2022-07-29T08:55:21.228Z,1.90
2022-07-29T08:58:26.596Z,2.07
2022-07-29T09:01:36.779Z,2.13
2022-07-29T09:04:47.039Z,2.47
2022-07-29T09:07:51.143Z,1.83
2022-07-29T09:10:56.708Z,1.83
2022-07-29T09:14:00.482Z,2.27
2022-07-29T09:17:06.836Z,1.63
2022-07-29T09:20:13.975Z,1.90
2022-07-29T09:23:23.091Z,2.40
2022-07-29T09:26:31.797Z,1.97
2022-07-29T09:29:36.422Z,1.90
2022-07-29T09:33:02.235Z,1.70
2022-07-29T09:36:08.546Z,2.30
2022-07-29T09:39:12.770Z,1.60
2022-07-29T09:42:30.279Z,1.80
2022-07-29T09:45:38.986Z,1.93
2022-07-29T09:48:44.029Z,1.70
2022-07-29T09:51:47.849Z,1.70
2022-07-29T09:54:51.769Z,2.00
2022-07-29T09:57:55.480Z,1.60
2022-07-29T10:00:59.475Z,1.70
2022-07-29T10:04:05.509Z,1.70
2022-07-29T10:07:09.243Z,1.70
2022-07-29T10:10:13.384Z,1.60
2022-07-29T10:13:17.378Z,1.43
2022-07-29T10:16:21.114Z,1.73
2022-07-29T10:19:27.106Z,1.40
2022-07-29T10:22:51.930Z,2.17
2022-07-29T10:25:55.170Z,1.80
2022-07-29T10:28:58.816Z,1.87
2022-07-29T10:32:36.640Z,1.70
2022-07-29T10:36:12.534Z,1.70
2022-07-29T10:39:44.438Z,1.63
2022-07-29T10:42:56.253Z,1.77
2022-07-29T10:46:03.042Z,1.60
2022-07-29T10:49:16.168Z,1.50
2022-07-29T10:52:26.639Z,1.37
2022-07-29T10:55:37.761Z,1.50
2022-07-29T10:58:42.083Z,1.57
2022-07-29T11:02:27.977Z,1.70
2022-07-29T11:05:22.243Z,1.47
2022-07-29T11:08:28.431Z,1.50
2022-07-29T11:11:37.732Z,1.30
2022-07-29T11:15:02.718Z,1.30
2022-07-29T11:21:51.675Z,1.20
2022-07-29T11:25:42.913Z,1.63
2022-07-29T11:29:04.792Z,1.10
2022-07-29T11:32:15.867Z,1.57
2022-07-29T11:35:38.260Z,1.60
2022-07-29T11:38:43.991Z,1.30
2022-07-29T11:41:49.308Z,1.20
2022-07-29T11:44:57.877Z,1.77
2022-07-29T11:48:29.335Z,1.37
2022-07-29T11:51:32.698Z,1.50
2022-07-29T11:54:58.291Z,1.30
2022-07-29T11:58:05.597Z,1.63
2022-07-29T12:01:09.333Z,1.20
2022-07-29T12:04:12.951Z,1.10
2022-07-29T12:07:17.807Z,1.40
2022-07-29T12:10:29.824Z,1.20
2022-07-29T12:13:41.786Z,1.70
2022-07-29T12:16:45.495Z,1.40
2022-07-29T12:19:50.960Z,1.50
2022-07-29T12:22:55.870Z,1.50
2022-07-29T12:26:01.475Z,1.40
2022-07-29T12:29:11.335Z,1.57
2022-07-29T12:32:19.778Z,1.40
2022-07-29T12:35:24.221Z,1.40
2022-07-29T12:38:28.704Z,1.23
2022-07-29T12:41:33.310Z,1.30
2022-07-29T12:44:52.682Z,1.70
2022-07-29T12:47:56.402Z,1.20
2022-07-29T12:51:04.257Z,1.63
2022-07-29T12:54:12.276Z,1.60
2022-07-29T12:57:20.289Z,1.20
2022-07-29T13:00:26.939Z,1.20
2022-07-29T13:03:35.726Z,1.20
2022-07-29T13:06:45.695Z,1.63
2022-07-29T13:09:49.506Z,1.53
2022-07-29T13:13:09.193Z,1.30
2022-07-29T13:16:14.243Z,1.17
2022-07-29T13:19:17.838Z,1.50
2022-07-29T13:22:24.408Z,1.47
2022-07-29T13:25:31.047Z,1.50
2022-07-29T13:28:35.254Z,1.70
2022-07-29T13:31:40.255Z,1.47
2022-07-29T13:34:43.868Z,1.97
2022-07-29T13:37:48.236Z,1.30
2022-07-29T13:40:51.954Z,1.63
2022-07-29T13:43:55.547Z,1.63
2022-07-29T13:47:00.996Z,1.80
2022-07-29T13:50:07.426Z,1.40
2022-07-29T13:53:11.106Z,1.90
2022-07-29T13:56:21.728Z,1.20
2022-07-29T13:59:25.316Z,1.40
2022-07-29T14:02:31.369Z,1.50
2022-07-29T14:05:34.991Z,1.40
2022-07-29T14:08:38.692Z,1.60
2022-07-29T14:11:42.339Z,1.33
2022-07-29T14:14:47.327Z,1.30
2022-07-29T14:17:52.520Z,1.50
2022-07-29T14:20:56.231Z,1.90
2022-07-29T14:23:59.839Z,1.20
2022-07-29T14:27:03.915Z,1.67
2022-07-29T14:30:09.791Z,1.63
2022-07-29T14:33:15.252Z,1.80
2022-07-29T14:36:18.876Z,1.60
2022-07-29T14:39:22.483Z,1.50
2022-07-29T14:42:26.107Z,1.83
2022-07-29T14:45:30.370Z,1.30
2022-07-29T14:48:36.100Z,1.20
2022-07-29T14:51:39.727Z,1.50
2022-07-29T14:54:43.980Z,1.43
2022-07-29T14:57:47.557Z,1.53
2022-07-29T15:00:51.380Z,1.73
2022-07-29T15:03:59.703Z,1.30
2022-07-29T15:07:03.564Z,1.40
2022-07-29T15:10:08.395Z,1.30
2022-07-29T15:13:12.036Z,1.70
2022-07-29T15:16:15.774Z,1.60
2022-07-29T15:19:20.871Z,1.50
2022-07-29T15:22:24.576Z,1.30
2022-07-29T15:25:28.616Z,1.33
2022-07-29T15:28:32.403Z,1.60
2022-07-29T15:31:36.231Z,1.80
2022-07-29T15:34:41.398Z,1.67
2022-07-29T15:37:48.840Z,1.40
2022-07-29T15:40:53.183Z,1.67
2022-07-29T15:43:56.843Z,1.53
2022-07-29T15:47:07.321Z,1.70
2022-07-29T15:50:15.934Z,2.50
2022-07-29T15:53:19.607Z,1.93
2022-07-29T15:56:23.496Z,2.27
2022-07-29T15:59:28.582Z,1.67
2022-07-29T16:02:32.207Z,1.30
2022-07-29T16:05:37.657Z,1.67
2022-07-29T16:08:41.342Z,1.50
2022-07-29T16:11:46.452Z,1.57
2022-07-29T16:14:52.082Z,1.77
2022-07-29T16:17:55.829Z,1.50
2022-07-29T16:21:00.812Z,1.70
2022-07-29T16:24:05.871Z,1.63
2022-07-29T16:27:09.495Z,1.70
2022-07-29T16:30:13.876Z,1.73
2022-07-29T16:33:17.823Z,1.83
2022-07-29T16:36:23.747Z,1.47
2022-07-29T16:39:36.796Z,1.47
2022-07-29T16:42:48.175Z,1.60
2022-07-29T16:45:52.012Z,1.70
2022-07-29T16:48:56.393Z,2.10
2022-07-29T16:52:01.499Z,1.40
2022-07-29T16:55:06.499Z,1.93
2022-07-29T16:58:10.938Z,1.90
2022-07-29T17:01:14.913Z,1.40
2022-07-29T17:04:18.648Z,1.63
2022-07-29T17:07:23.803Z,2.00
2022-07-29T17:10:28.474Z,1.73
2022-07-29T17:13:32.212Z,1.53
2022-07-29T17:16:36.172Z,1.70
2022-07-29T17:19:40.094Z,1.77
2022-07-29T17:22:45.320Z,1.80
2022-07-29T17:25:49.234Z,1.80
2022-07-29T17:28:53.633Z,1.87
2022-07-29T17:31:57.815Z,1.87
2022-07-29T17:35:01.445Z,1.97
2022-07-29T17:38:06.533Z,2.20
2022-07-29T17:41:10.219Z,2.37
2022-07-29T17:44:14.203Z,2.17
2022-07-29T17:47:17.836Z,2.47
2022-07-29T17:50:21.498Z,2.60
2022-07-29T17:53:26.559Z,2.50
2022-07-29T17:56:30.220Z,2.17
2022-07-29T17:59:33.872Z,2.47
2022-07-29T18:02:38.082Z,2.40
2022-07-29T18:05:42.084Z,2.63
2022-07-29T18:08:47.636Z,2.30
2022-07-29T18:11:51.722Z,2.73
2022-07-29T18:14:55.391Z,2.70
2022-07-29T18:17:58.987Z,2.70
2022-07-29T18:21:02.911Z,2.13
2022-07-29T18:24:09.523Z,2.30
2022-07-29T18:27:13.358Z,2.20
2022-07-29T18:30:17.296Z,2.40
2022-07-29T18:33:22.397Z,1.90
2022-07-29T18:36:26.338Z,2.50
2022-07-29T18:39:31.350Z,2.40
2022-07-29T18:42:35.118Z,3.20
2022-07-29T18:45:39.606Z,3.67
2022-07-29T18:48:43.356Z,2.57
2022-07-29T18:51:47.025Z,2.80
2022-07-29T18:54:52.302Z,2.93
2022-07-29T18:57:57.441Z,2.33
2022-07-29T19:01:02.430Z,1.93
2022-07-29T19:04:06.335Z,2.57
2022-07-29T19:07:10.114Z,2.67
2022-07-29T19:10:15.754Z,2.27
2022-07-29T19:13:19.365Z,2.87
2022-07-29T19:16:22.999Z,2.33
2022-07-29T19:19:26.635Z,2.73
2022-07-29T19:22:30.303Z,2.13
2022-07-29T19:25:35.877Z,2.67
2022-07-29T19:28:39.611Z,2.43
2022-07-29T19:31:44.348Z,2.50
2022-07-29T19:35:08.140Z,2.33
2022-07-29T19:38:12.009Z,2.37
2022-07-29T19:41:17.232Z,2.87
2022-07-29T19:44:21.433Z,2.70
2022-07-29T19:47:25.205Z,2.40
2022-07-29T19:50:29.024Z,2.50
2022-07-29T19:53:33.366Z,2.43
2022-07-29T19:56:40.760Z,2.90
2022-07-29T19:59:46.117Z,2.33
2022-07-29T20:02:49.974Z,2.63
2022-07-29T20:05:53.632Z,2.73
2022-07-29T20:08:58.869Z,2.67
2022-07-29T20:12:04.864Z,2.77
2022-07-29T20:15:10.585Z,2.93
2022-07-29T20:18:20.271Z,3.00
2022-07-29T20:21:23.869Z,2.50
2022-07-29T20:24:27.588Z,3.33
2022-07-29T20:27:32.644Z,3.07
2022-07-29T20:30:38.422Z,2.80
2022-07-29T20:33:42.489Z,2.60
2022-07-29T20:36:46.149Z,2.80
2022-07-29T20:39:49.767Z,2.30
2022-07-29T20:42:55.153Z,2.90
2022-07-29T20:46:00.185Z,2.47
2022-07-29T20:49:03.919Z,2.50
2022-07-29T20:52:08.610Z,2.77
2022-07-29T20:55:12.691Z,2.67
2022-07-29T20:58:19.785Z,2.30
2022-07-29T21:01:23.630Z,2.37
2022-07-29T21:04:32.669Z,2.97
2022-07-29T21:07:36.474Z,2.50
2022-07-29T21:10:40.314Z,2.43
2022-07-29T21:13:45.598Z,2.43
2022-07-29T21:16:50.303Z,2.60
2022-07-29T21:19:55.398Z,2.30
2022-07-29T21:22:59.408Z,2.60
2022-07-29T21:26:06.237Z,2.80
2022-07-29T21:29:13.184Z,2.50
2022-07-29T21:32:27.582Z,2.63
2022-07-29T21:36:06.623Z,2.83
2022-07-29T21:38:57.875Z,2.73
2022-07-29T21:42:02.181Z,2.77
2022-07-29T21:45:08.548Z,2.73
2022-07-29T21:48:15.734Z,2.40
2022-07-29T21:51:19.378Z,2.73
2022-07-29T21:54:23.099Z,2.50
2022-07-29T21:57:27.696Z,2.70
2022-07-29T22:00:34.106Z,2.50
2022-07-29T22:03:37.683Z,2.73
2022-07-29T22:06:41.535Z,3.00
2022-07-29T22:09:45.188Z,2.20
2022-07-29T22:12:51.251Z,2.70
2022-07-29T22:15:56.251Z,2.77
2022-07-29T22:18:59.846Z,2.80
2022-07-29T22:22:03.515Z,2.67
2022-07-29T22:25:09.196Z,2.93
2022-07-29T22:28:12.767Z,2.80
2022-07-29T22:31:17.865Z,3.00
2022-07-29T22:34:21.627Z,3.10
2022-07-29T22:37:25.328Z,2.63
2022-07-29T22:40:30.762Z,2.67
2022-07-29T22:43:36.459Z,3.10
2022-07-29T22:46:41.729Z,2.70
2022-07-29T22:49:45.526Z,2.67
2022-07-29T22:52:49.164Z,3.23
2022-07-29T22:55:52.794Z,2.77
2022-07-29T22:58:56.499Z,2.93
2022-07-29T23:02:01.621Z,2.60
2022-07-29T23:05:05.763Z,3.03
2022-07-29T23:08:10.395Z,2.73
2022-07-29T23:11:14.231Z,3.07
2022-07-29T23:14:17.931Z,3.07
2022-07-29T23:17:23.055Z,3.07
2022-07-29T23:20:27.020Z,2.73
2022-07-29T23:23:32.338Z,3.30
2022-07-29T23:26:36.936Z,3.13
2022-07-29T23:29:40.562Z,2.80
2022-07-29T23:32:45.611Z,2.83
2022-07-29T23:35:49.308Z,2.80
2022-07-29T23:38:54.963Z,2.80
2022-07-29T23:41:58.544Z,3.00
2022-07-29T23:45:02.318Z,3.27
2022-07-29T23:48:08.090Z,2.70
2022-07-29T23:51:11.715Z,3.13
2022-07-29T23:54:15.337Z,2.50
2022-07-29T23:57:19.254Z,3.60
